sensor_id;sensor_type;location;lat;lon;timestamp;P1;durP1;ratioP1;P2;durP2;ratioP2
74124;SDS011;62475;52.192;5.396;2023-06-14T00:06:20;8.30;;;2.28;;
74124;SDS011;62475;52.192;5.396;2023-06-14T00:09:57;8.90;;;2.38;;
74124;SDS011;62475;52.192;5.396;2023-06-14T00:13:21;2.58;;;1.90;;
74124;SDS011;62475;52.192;5.396;2023-06-14T00:16:46;7.85;;;1.98;;
74124;SDS011;62475;52.192;5.396;2023-06-14T00:20:12;3.97;;;1.70;;
74124;SDS011;62475;52.192;5.396;2023-06-14T00:23:37;3.78;;;1.88;;
74124;SDS011;62475;52.192;5.396;2023-06-14T00:30:24;5.28;;;2.20;;
74124;SDS011;62475;52.192;5.396;2023-06-14T00:33:48;7.57;;;2.20;;
74124;SDS011;62475;52.192;5.396;2023-06-14T00:40:37;4.90;;;1.77;;
74124;SDS011;62475;52.192;5.396;2023-06-14T00:44:02;3.63;;;2.13;;
74124;SDS011;62475;52.192;5.396;2023-06-14T00:47:26;5.45;;;2.10;;
74124;SDS011;62475;52.192;5.396;2023-06-14T00:50:50;3.13;;;1.98;;
74124;SDS011;62475;52.192;5.396;2023-06-14T00:54:15;6.55;;;1.85;;
74124;SDS011;62475;52.192;5.396;2023-06-14T01:01:02;5.47;;;2.08;;
74124;SDS011;62475;52.192;5.396;2023-06-14T01:07:57;5.53;;;2.13;;
74124;SDS011;62475;52.192;5.396;2023-06-14T01:11:38;7.45;;;2.22;;
74124;SDS011;62475;52.192;5.396;2023-06-14T01:15:04;4.97;;;1.80;;
74124;SDS011;62475;52.192;5.396;2023-06-14T01:18:30;5.28;;;2.35;;
74124;SDS011;62475;52.192;5.396;2023-06-14T01:21:57;8.65;;;2.10;;
74124;SDS011;62475;52.192;5.396;2023-06-14T01:25:24;6.00;;;2.33;;
74124;SDS011;62475;52.192;5.396;2023-06-14T01:28:48;7.10;;;2.22;;
74124;SDS011;62475;52.192;5.396;2023-06-14T01:32:21;8.30;;;2.10;;
74124;SDS011;62475;52.192;5.396;2023-06-14T01:35:48;5.00;;;1.77;;
74124;SDS011;62475;52.192;5.396;2023-06-14T01:39:13;5.75;;;2.08;;
74124;SDS011;62475;52.192;5.396;2023-06-14T01:42:39;3.95;;;2.13;;
74124;SDS011;62475;52.192;5.396;2023-06-14T01:46:04;7.22;;;2.00;;
74124;SDS011;62475;52.192;5.396;2023-06-14T01:49:29;5.97;;;2.30;;
74124;SDS011;62475;52.192;5.396;2023-06-14T01:52:57;3.70;;;1.98;;
74124;SDS011;62475;52.192;5.396;2023-06-14T01:56:22;5.65;;;2.00;;
74124;SDS011;62475;52.192;5.396;2023-06-14T01:59:48;6.13;;;2.05;;
74124;SDS011;62475;52.192;5.396;2023-06-14T02:03:13;5.18;;;1.90;;
74124;SDS011;62475;52.192;5.396;2023-06-14T02:06:37;4.43;;;2.05;;
74124;SDS011;62475;52.192;5.396;2023-06-14T02:10:02;3.58;;;1.90;;
74124;SDS011;62475;52.192;5.396;2023-06-14T02:13:26;8.73;;;2.33;;
74124;SDS011;62475;52.192;5.396;2023-06-14T02:16:51;3.75;;;1.77;;
74124;SDS011;62475;52.192;5.396;2023-06-14T02:20:15;3.22;;;1.75;;
74124;SDS011;62475;52.192;5.396;2023-06-14T02:23:43;4.05;;;1.75;;
74124;SDS011;62475;52.192;5.396;2023-06-14T02:27:07;3.97;;;1.80;;
74124;SDS011;62475;52.192;5.396;2023-06-14T02:33:55;3.83;;;1.60;;
74124;SDS011;62475;52.192;5.396;2023-06-14T02:37:19;6.13;;;1.85;;
74124;SDS011;62475;52.192;5.396;2023-06-14T02:44:07;3.13;;;1.95;;
74124;SDS011;62475;52.192;5.396;2023-06-14T02:47:31;7.70;;;2.25;;
74124;SDS011;62475;52.192;5.396;2023-06-14T02:50:55;4.10;;;2.15;;
74124;SDS011;62475;52.192;5.396;2023-06-14T02:57:42;3.30;;;2.03;;
74124;SDS011;62475;52.192;5.396;2023-06-14T03:01:06;14.48;;;2.42;;
74124;SDS011;62475;52.192;5.396;2023-06-14T03:04:30;5.38;;;1.83;;
74124;SDS011;62475;52.192;5.396;2023-06-14T03:07:54;4.68;;;1.95;;
74124;SDS011;62475;52.192;5.396;2023-06-14T03:11:19;4.88;;;2.15;;
74124;SDS011;62475;52.192;5.396;2023-06-14T03:14:45;5.03;;;2.05;;
74124;SDS011;62475;52.192;5.396;2023-06-14T03:18:10;5.80;;;2.13;;
74124;SDS011;62475;52.192;5.396;2023-06-14T03:21:34;4.28;;;2.10;;
74124;SDS011;62475;52.192;5.396;2023-06-14T03:24:59;6.57;;;2.22;;
74124;SDS011;62475;52.192;5.396;2023-06-14T03:28:23;4.07;;;1.90;;
74124;SDS011;62475;52.192;5.396;2023-06-14T03:32:00;3.75;;;1.88;;
74124;SDS011;62475;52.192;5.396;2023-06-14T03:35:26;7.85;;;2.05;;
74124;SDS011;62475;52.192;5.396;2023-06-14T03:38:52;3.15;;;2.00;;
74124;SDS011;62475;52.192;5.396;2023-06-14T03:42:16;2.97;;;1.80;;
74124;SDS011;62475;52.192;5.396;2023-06-14T03:45:40;6.10;;;2.00;;
74124;SDS011;62475;52.192;5.396;2023-06-14T03:49:04;5.53;;;2.05;;
74124;SDS011;62475;52.192;5.396;2023-06-14T03:52:28;4.38;;;2.20;;
74124;SDS011;62475;52.192;5.396;2023-06-14T03:55:54;5.00;;;1.85;;
74124;SDS011;62475;52.192;5.396;2023-06-14T03:59:18;8.90;;;2.40;;
74124;SDS011;62475;52.192;5.396;2023-06-14T04:02:43;4.95;;;2.22;;
74124;SDS011;62475;52.192;5.396;2023-06-14T04:06:06;4.53;;;1.90;;
74124;SDS011;62475;52.192;5.396;2023-06-14T04:09:30;4.97;;;2.40;;
74124;SDS011;62475;52.192;5.396;2023-06-14T04:12:54;4.78;;;2.30;;
74124;SDS011;62475;52.192;5.396;2023-06-14T04:19:45;3.42;;;2.40;;
74124;SDS011;62475;52.192;5.396;2023-06-14T04:23:12;4.35;;;2.33;;
74124;SDS011;62475;52.192;5.396;2023-06-14T04:26:39;5.32;;;2.03;;
74124;SDS011;62475;52.192;5.396;2023-06-14T04:30:03;8.23;;;2.47;;
74124;SDS011;62475;52.192;5.396;2023-06-14T04:33:27;7.05;;;2.20;;
74124;SDS011;62475;52.192;5.396;2023-06-14T04:36:54;4.82;;;2.25;;
74124;SDS011;62475;52.192;5.396;2023-06-14T04:40:18;7.43;;;2.40;;
74124;SDS011;62475;52.192;5.396;2023-06-14T04:43:44;6.18;;;2.38;;
74124;SDS011;62475;52.192;5.396;2023-06-14T04:47:08;5.65;;;2.45;;
74124;SDS011;62475;52.192;5.396;2023-06-14T04:50:32;7.20;;;2.40;;
74124;SDS011;62475;52.192;5.396;2023-06-14T04:53:58;3.50;;;2.15;;
74124;SDS011;62475;52.192;5.396;2023-06-14T04:57:24;6.47;;;2.28;;
74124;SDS011;62475;52.192;5.396;2023-06-14T05:04:17;7.07;;;2.70;;
74124;SDS011;62475;52.192;5.396;2023-06-14T05:07:42;7.38;;;2.20;;
74124;SDS011;62475;52.192;5.396;2023-06-14T05:11:07;7.40;;;2.20;;
74124;SDS011;62475;52.192;5.396;2023-06-14T05:14:34;3.88;;;2.20;;
74124;SDS011;62475;52.192;5.396;2023-06-14T05:17:59;6.47;;;1.83;;
74124;SDS011;62475;52.192;5.396;2023-06-14T05:21:23;3.90;;;2.05;;
74124;SDS011;62475;52.192;5.396;2023-06-14T05:24:47;6.13;;;2.20;;
74124;SDS011;62475;52.192;5.396;2023-06-14T05:28:11;4.22;;;1.95;;
74124;SDS011;62475;52.192;5.396;2023-06-14T05:34:59;3.90;;;2.25;;
74124;SDS011;62475;52.192;5.396;2023-06-14T05:41:49;6.00;;;2.33;;
74124;SDS011;62475;52.192;5.396;2023-06-14T05:45:13;4.10;;;2.00;;
74124;SDS011;62475;52.192;5.396;2023-06-14T05:52:01;4.20;;;1.80;;
74124;SDS011;62475;52.192;5.396;2023-06-14T05:58:49;3.88;;;2.22;;
74124;SDS011;62475;52.192;5.396;2023-06-14T06:02:12;7.85;;;2.20;;
74124;SDS011;62475;52.192;5.396;2023-06-14T06:05:38;3.20;;;1.90;;
74124;SDS011;62475;52.192;5.396;2023-06-14T06:09:02;6.18;;;2.17;;
74124;SDS011;62475;52.192;5.396;2023-06-14T06:12:25;3.92;;;1.77;;
74124;SDS011;62475;52.192;5.396;2023-06-14T06:19:13;2.95;;;1.95;;
74124;SDS011;62475;52.192;5.396;2023-06-14T06:22:37;3.17;;;1.92;;
74124;SDS011;62475;52.192;5.396;2023-06-14T06:26:01;3.67;;;1.80;;
74124;SDS011;62475;52.192;5.396;2023-06-14T06:32:49;5.70;;;2.05;;
74124;SDS011;62475;52.192;5.396;2023-06-14T06:36:13;3.90;;;1.77;;
74124;SDS011;62475;52.192;5.396;2023-06-14T06:39:37;5.00;;;2.15;;
74124;SDS011;62475;52.192;5.396;2023-06-14T06:43:02;5.60;;;1.80;;
74124;SDS011;62475;52.192;5.396;2023-06-14T06:46:25;5.03;;;2.17;;
74124;SDS011;62475;52.192;5.396;2023-06-14T06:49:51;5.82;;;2.22;;
74124;SDS011;62475;52.192;5.396;2023-06-14T06:53:16;3.25;;;1.83;;
74124;SDS011;62475;52.192;5.396;2023-06-14T06:56:40;6.15;;;2.15;;
74124;SDS011;62475;52.192;5.396;2023-06-14T07:00:04;4.22;;;1.70;;
74124;SDS011;62475;52.192;5.396;2023-06-14T07:03:27;5.07;;;2.35;;
74124;SDS011;62475;52.192;5.396;2023-06-14T07:06:51;2.83;;;1.80;;
74124;SDS011;62475;52.192;5.396;2023-06-14T07:10:17;4.88;;;2.50;;
74124;SDS011;62475;52.192;5.396;2023-06-14T07:13:41;6.38;;;2.40;;
74124;SDS011;62475;52.192;5.396;2023-06-14T07:17:04;4.03;;;2.15;;
74124;SDS011;62475;52.192;5.396;2023-06-14T07:20:29;3.60;;;1.60;;
74124;SDS011;62475;52.192;5.396;2023-06-14T07:23:54;3.47;;;2.00;;
74124;SDS011;62475;52.192;5.396;2023-06-14T07:27:18;5.20;;;2.10;;
74124;SDS011;62475;52.192;5.396;2023-06-14T07:30:42;4.07;;;1.90;;
74124;SDS011;62475;52.192;5.396;2023-06-14T07:34:06;4.15;;;1.95;;
74124;SDS011;62475;52.192;5.396;2023-06-14T07:37:31;4.22;;;1.70;;
74124;SDS011;62475;52.192;5.396;2023-06-14T07:40:57;4.97;;;1.83;;
74124;SDS011;62475;52.192;5.396;2023-06-14T07:44:21;2.75;;;1.40;;
74124;SDS011;62475;52.192;5.396;2023-06-14T07:47:45;2.92;;;1.80;;
74124;SDS011;62475;52.192;5.396;2023-06-14T07:51:09;4.78;;;1.88;;
74124;SDS011;62475;52.192;5.396;2023-06-14T07:54:33;2.78;;;1.40;;
74124;SDS011;62475;52.192;5.396;2023-06-14T07:57:58;2.00;;;1.33;;
74124;SDS011;62475;52.192;5.396;2023-06-14T08:01:22;3.17;;;1.40;;
74124;SDS011;62475;52.192;5.396;2023-06-14T08:04:46;1.92;;;1.40;;
74124;SDS011;62475;52.192;5.396;2023-06-14T08:08:10;3.85;;;1.38;;
74124;SDS011;62475;52.192;5.396;2023-06-14T08:11:33;3.75;;;1.30;;
74124;SDS011;62475;52.192;5.396;2023-06-14T08:14:59;3.25;;;1.20;;
74124;SDS011;62475;52.192;5.396;2023-06-14T08:18:23;4.97;;;1.17;;
74124;SDS011;62475;52.192;5.396;2023-06-14T08:21:47;3.15;;;1.10;;
74124;SDS011;62475;52.192;5.396;2023-06-14T08:25:13;5.55;;;1.30;;
74124;SDS011;62475;52.192;5.396;2023-06-14T08:28:37;2.60;;;1.20;;
74124;SDS011;62475;52.192;5.396;2023-06-14T08:32:00;5.93;;;1.60;;
74124;SDS011;62475;52.192;5.396;2023-06-14T08:35:24;2.90;;;1.13;;
74124;SDS011;62475;52.192;5.396;2023-06-14T08:38:48;2.28;;;1.35;;
74124;SDS011;62475;52.192;5.396;2023-06-14T08:42:12;3.20;;;1.23;;
74124;SDS011;62475;52.192;5.396;2023-06-14T08:45:37;2.05;;;1.23;;
74124;SDS011;62475;52.192;5.396;2023-06-14T08:49:02;2.50;;;1.13;;
74124;SDS011;62475;52.192;5.396;2023-06-14T08:52:25;3.20;;;1.35;;
74124;SDS011;62475;52.192;5.396;2023-06-14T08:56:06;1.98;;;1.27;;
74124;SDS011;62475;52.192;5.396;2023-06-14T08:59:32;2.00;;;1.05;;
74124;SDS011;62475;52.192;5.396;2023-06-14T09:02:58;5.80;;;1.80;;
74124;SDS011;62475;52.192;5.396;2023-06-14T09:06:22;2.47;;;1.00;;
74124;SDS011;62475;52.192;5.396;2023-06-14T09:09:46;1.90;;;1.00;;
74124;SDS011;62475;52.192;5.396;2023-06-14T09:13:10;4.32;;;1.20;;
74124;SDS011;62475;52.192;5.396;2023-06-14T09:16:35;3.58;;;1.10;;
74124;SDS011;62475;52.192;5.396;2023-06-14T09:20:02;3.13;;;1.25;;
74124;SDS011;62475;52.192;5.396;2023-06-14T09:23:26;2.97;;;1.13;;
74124;SDS011;62475;52.192;5.396;2023-06-14T09:26:51;2.30;;;1.20;;
74124;SDS011;62475;52.192;5.396;2023-06-14T09:30:16;2.53;;;1.20;;
74124;SDS011;62475;52.192;5.396;2023-06-14T09:33:45;3.80;;;1.17;;
74124;SDS011;62475;52.192;5.396;2023-06-14T09:37:10;4.03;;;0.93;;
74124;SDS011;62475;52.192;5.396;2023-06-14T09:40:34;3.08;;;1.10;;
74124;SDS011;62475;52.192;5.396;2023-06-14T09:43:59;3.08;;;1.20;;
74124;SDS011;62475;52.192;5.396;2023-06-14T09:47:23;1.48;;;1.10;;
74124;SDS011;62475;52.192;5.396;2023-06-14T09:50:47;2.28;;;1.10;;
74124;SDS011;62475;52.192;5.396;2023-06-14T09:54:16;2.17;;;1.08;;
74124;SDS011;62475;52.192;5.396;2023-06-14T09:57:43;2.97;;;1.23;;
74124;SDS011;62475;52.192;5.396;2023-06-14T10:01:09;1.98;;;1.20;;
74124;SDS011;62475;52.192;5.396;2023-06-14T10:04:36;3.85;;;1.38;;
74124;SDS011;62475;52.192;5.396;2023-06-14T10:08:07;3.40;;;1.20;;
74124;SDS011;62475;52.192;5.396;2023-06-14T10:11:35;1.80;;;1.27;;
74124;SDS011;62475;52.192;5.396;2023-06-14T10:14:59;2.72;;;1.08;;
74124;SDS011;62475;52.192;5.396;2023-06-14T10:22:34;3.38;;;1.17;;
74124;SDS011;62475;52.192;5.396;2023-06-14T10:26:02;2.10;;;1.00;;
74124;SDS011;62475;52.192;5.396;2023-06-14T10:29:26;2.78;;;1.00;;
74124;SDS011;62475;52.192;5.396;2023-06-14T10:33:02;3.88;;;1.20;;
74124;SDS011;62475;52.192;5.396;2023-06-14T10:36:30;3.33;;;1.10;;
74124;SDS011;62475;52.192;5.396;2023-06-14T10:39:54;2.55;;;1.17;;
74124;SDS011;62475;52.192;5.396;2023-06-14T10:43:20;1.77;;;1.13;;
74124;SDS011;62475;52.192;5.396;2023-06-14T10:46:48;2.38;;;1.13;;
74124;SDS011;62475;52.192;5.396;2023-06-14T10:53:48;2.65;;;0.93;;
74124;SDS011;62475;52.192;5.396;2023-06-14T10:57:34;2.00;;;1.17;;
74124;SDS011;62475;52.192;5.396;2023-06-14T11:00:59;2.53;;;1.10;;
74124;SDS011;62475;52.192;5.396;2023-06-14T11:04:23;4.57;;;1.25;;
74124;SDS011;62475;52.192;5.396;2023-06-14T11:07:58;1.92;;;1.00;;
74124;SDS011;62475;52.192;5.396;2023-06-14T11:11:37;3.05;;;1.30;;
74124;SDS011;62475;52.192;5.396;2023-06-14T11:15:01;2.85;;;1.15;;
74124;SDS011;62475;52.192;5.396;2023-06-14T11:18:25;1.73;;;1.13;;
74124;SDS011;62475;52.192;5.396;2023-06-14T11:21:50;2.55;;;1.25;;
74124;SDS011;62475;52.192;5.396;2023-06-14T11:25:14;2.65;;;1.30;;
74124;SDS011;62475;52.192;5.396;2023-06-14T11:28:40;3.03;;;1.30;;
74124;SDS011;62475;52.192;5.396;2023-06-14T11:32:12;6.28;;;1.23;;
74124;SDS011;62475;52.192;5.396;2023-06-14T11:35:36;2.45;;;1.13;;
74124;SDS011;62475;52.192;5.396;2023-06-14T11:39:04;1.15;;;0.80;;
74124;SDS011;62475;52.192;5.396;2023-06-14T11:42:33;4.07;;;1.42;;
74124;SDS011;62475;52.192;5.396;2023-06-14T11:45:58;3.42;;;1.10;;
74124;SDS011;62475;52.192;5.396;2023-06-14T11:49:23;3.20;;;1.20;;
74124;SDS011;62475;52.192;5.396;2023-06-14T11:56:17;2.15;;;1.40;;
74124;SDS011;62475;52.192;5.396;2023-06-14T11:59:43;3.13;;;1.20;;
74124;SDS011;62475;52.192;5.396;2023-06-14T12:03:08;4.70;;;1.10;;
74124;SDS011;62475;52.192;5.396;2023-06-14T12:06:32;3.33;;;1.10;;
74124;SDS011;62475;52.192;5.396;2023-06-14T12:13:21;8.98;;;1.30;;
74124;SDS011;62475;52.192;5.396;2023-06-14T12:16:45;4.07;;;1.20;;
74124;SDS011;62475;52.192;5.396;2023-06-14T12:20:10;1.70;;;1.10;;
74124;SDS011;62475;52.192;5.396;2023-06-14T12:23:47;2.97;;;1.10;;
74124;SDS011;62475;52.192;5.396;2023-06-14T12:27:12;3.03;;;1.10;;
74124;SDS011;62475;52.192;5.396;2023-06-14T12:30:36;4.07;;;1.02;;
74124;SDS011;62475;52.192;5.396;2023-06-14T12:34:00;3.17;;;1.10;;
74124;SDS011;62475;52.192;5.396;2023-06-14T12:37:24;4.38;;;1.35;;
74124;SDS011;62475;52.192;5.396;2023-06-14T12:40:49;4.18;;;1.23;;
74124;SDS011;62475;52.192;5.396;2023-06-14T12:44:13;4.03;;;1.33;;
74124;SDS011;62475;52.192;5.396;2023-06-14T12:47:38;1.15;;;0.90;;
74124;SDS011;62475;52.192;5.396;2023-06-14T12:51:02;2.28;;;1.00;;
74124;SDS011;62475;52.192;5.396;2023-06-14T12:54:26;2.10;;;1.20;;
74124;SDS011;62475;52.192;5.396;2023-06-14T12:57:50;1.75;;;1.20;;
74124;SDS011;62475;52.192;5.396;2023-06-14T13:01:14;2.50;;;1.05;;
74124;SDS011;62475;52.192;5.396;2023-06-14T13:04:38;1.85;;;1.20;;
74124;SDS011;62475;52.192;5.396;2023-06-14T13:08:06;1.58;;;0.82;;
74124;SDS011;62475;52.192;5.396;2023-06-14T13:11:30;4.72;;;1.10;;
74124;SDS011;62475;52.192;5.396;2023-06-14T13:14:54;2.20;;;1.10;;
74124;SDS011;62475;52.192;5.396;2023-06-14T13:18:18;3.08;;;1.17;;
74124;SDS011;62475;52.192;5.396;2023-06-14T13:21:42;2.88;;;1.30;;
74124;SDS011;62475;52.192;5.396;2023-06-14T13:25:06;4.93;;;1.65;;
74124;SDS011;62475;52.192;5.396;2023-06-14T13:28:29;3.80;;;1.35;;
74124;SDS011;62475;52.192;5.396;2023-06-14T13:31:55;3.17;;;1.00;;
74124;SDS011;62475;52.192;5.396;2023-06-14T13:35:20;4.82;;;1.05;;
74124;SDS011;62475;52.192;5.396;2023-06-14T13:38:46;2.53;;;1.13;;
74124;SDS011;62475;52.192;5.396;2023-06-14T13:42:10;2.35;;;1.15;;
74124;SDS011;62475;52.192;5.396;2023-06-14T13:45:34;2.75;;;1.30;;
74124;SDS011;62475;52.192;5.396;2023-06-14T13:48:57;4.43;;;1.20;;
74124;SDS011;62475;52.192;5.396;2023-06-14T13:52:21;3.78;;;1.45;;
74124;SDS011;62475;52.192;5.396;2023-06-14T13:55:45;3.17;;;1.10;;
74124;SDS011;62475;52.192;5.396;2023-06-14T13:59:09;1.55;;;0.95;;
74124;SDS011;62475;52.192;5.396;2023-06-14T14:02:33;2.83;;;1.10;;
74124;SDS011;62475;52.192;5.396;2023-06-14T14:05:58;1.90;;;1.00;;
74124;SDS011;62475;52.192;5.396;2023-06-14T14:09:21;2.45;;;1.17;;
74124;SDS011;62475;52.192;5.396;2023-06-14T14:12:45;3.90;;;1.27;;
74124;SDS011;62475;52.192;5.396;2023-06-14T14:16:09;3.00;;;1.00;;
74124;SDS011;62475;52.192;5.396;2023-06-14T14:19:34;3.92;;;1.10;;
74124;SDS011;62475;52.192;5.396;2023-06-14T14:22:58;3.20;;;1.08;;
74124;SDS011;62475;52.192;5.396;2023-06-14T14:26:21;3.60;;;1.02;;
74124;SDS011;62475;52.192;5.396;2023-06-14T14:29:45;3.95;;;1.08;;
74124;SDS011;62475;52.192;5.396;2023-06-14T14:33:09;1.95;;;1.42;;
74124;SDS011;62475;52.192;5.396;2023-06-14T14:36:33;1.98;;;1.13;;
74124;SDS011;62475;52.192;5.396;2023-06-14T14:39:57;2.67;;;0.82;;
74124;SDS011;62475;52.192;5.396;2023-06-14T14:43:20;5.88;;;2.50;;
74124;SDS011;62475;52.192;5.396;2023-06-14T14:46:44;2.63;;;1.02;;
74124;SDS011;62475;52.192;5.396;2023-06-14T14:50:08;2.92;;;1.20;;
74124;SDS011;62475;52.192;5.396;2023-06-14T14:53:32;2.70;;;1.20;;
74124;SDS011;62475;52.192;5.396;2023-06-14T14:56:56;3.33;;;1.33;;
74124;SDS011;62475;52.192;5.396;2023-06-14T15:00:20;3.13;;;1.30;;
74124;SDS011;62475;52.192;5.396;2023-06-14T15:03:45;2.15;;;1.02;;
74124;SDS011;62475;52.192;5.396;2023-06-14T15:07:09;2.03;;;1.00;;
74124;SDS011;62475;52.192;5.396;2023-06-14T15:10:37;1.73;;;1.10;;
74124;SDS011;62475;52.192;5.396;2023-06-14T15:14:01;4.13;;;1.20;;
74124;SDS011;62475;52.192;5.396;2023-06-14T15:17:25;1.40;;;0.90;;
74124;SDS011;62475;52.192;5.396;2023-06-14T15:20:48;3.65;;;1.00;;
74124;SDS011;62475;52.192;5.396;2023-06-14T15:24:13;1.80;;;1.00;;
74124;SDS011;62475;52.192;5.396;2023-06-14T15:27:38;1.30;;;0.90;;
74124;SDS011;62475;52.192;5.396;2023-06-14T15:31:01;2.03;;;0.98;;
74124;SDS011;62475;52.192;5.396;2023-06-14T15:34:26;1.85;;;0.80;;
74124;SDS011;62475;52.192;5.396;2023-06-14T15:37:50;2.60;;;0.98;;
74124;SDS011;62475;52.192;5.396;2023-06-14T15:41:14;2.58;;;0.90;;
74124;SDS011;62475;52.192;5.396;2023-06-14T15:44:37;2.75;;;1.02;;
74124;SDS011;62475;52.192;5.396;2023-06-14T15:48:02;2.53;;;0.82;;
74124;SDS011;62475;52.192;5.396;2023-06-14T15:51:27;1.40;;;0.95;;
74124;SDS011;62475;52.192;5.396;2023-06-14T15:54:51;1.30;;;0.90;;
74124;SDS011;62475;52.192;5.396;2023-06-14T15:58:15;1.20;;;0.93;;
74124;SDS011;62475;52.192;5.396;2023-06-14T16:01:39;2.78;;;1.25;;
74124;SDS011;62475;52.192;5.396;2023-06-14T16:05:03;2.90;;;1.00;;
74124;SDS011;62475;52.192;5.396;2023-06-14T16:08:26;4.05;;;1.40;;
74124;SDS011;62475;52.192;5.396;2023-06-14T16:11:50;2.05;;;1.02;;
74124;SDS011;62475;52.192;5.396;2023-06-14T16:15:14;2.42;;;1.27;;
74124;SDS011;62475;52.192;5.396;2023-06-14T16:18:38;1.70;;;0.80;;
74124;SDS011;62475;52.192;5.396;2023-06-14T16:22:02;3.55;;;0.90;;
74124;SDS011;62475;52.192;5.396;2023-06-14T16:25:26;2.15;;;1.30;;
74124;SDS011;62475;52.192;5.396;2023-06-14T16:28:50;2.60;;;0.90;;
74124;SDS011;62475;52.192;5.396;2023-06-14T16:32:15;2.92;;;0.90;;
74124;SDS011;62475;52.192;5.396;2023-06-14T16:35:39;1.88;;;1.00;;
74124;SDS011;62475;52.192;5.396;2023-06-14T16:39:03;3.50;;;1.10;;
74124;SDS011;62475;52.192;5.396;2023-06-14T16:42:27;2.95;;;0.93;;
74124;SDS011;62475;52.192;5.396;2023-06-14T16:45:51;1.10;;;0.90;;
74124;SDS011;62475;52.192;5.396;2023-06-14T16:49:15;2.40;;;0.98;;
74124;SDS011;62475;52.192;5.396;2023-06-14T16:52:39;1.48;;;1.02;;
74124;SDS011;62475;52.192;5.396;2023-06-14T16:56:03;3.75;;;1.15;;
74124;SDS011;62475;52.192;5.396;2023-06-14T16:59:27;2.47;;;1.20;;
74124;SDS011;62475;52.192;5.396;2023-06-14T17:02:52;1.35;;;0.88;;
74124;SDS011;62475;52.192;5.396;2023-06-14T17:06:16;2.78;;;1.00;;
74124;SDS011;62475;52.192;5.396;2023-06-14T17:09:40;2.92;;;1.05;;
74124;SDS011;62475;52.192;5.396;2023-06-14T17:13:03;3.67;;;1.40;;
74124;SDS011;62475;52.192;5.396;2023-06-14T17:16:30;2.17;;;1.08;;
74124;SDS011;62475;52.192;5.396;2023-06-14T17:19:53;1.67;;;0.90;;
74124;SDS011;62475;52.192;5.396;2023-06-14T17:23:17;2.00;;;0.98;;
74124;SDS011;62475;52.192;5.396;2023-06-14T17:26:41;5.80;;;1.25;;
74124;SDS011;62475;52.192;5.396;2023-06-14T17:30:06;2.80;;;1.05;;
74124;SDS011;62475;52.192;5.396;2023-06-14T17:33:29;2.75;;;0.90;;
74124;SDS011;62475;52.192;5.396;2023-06-14T17:36:53;2.22;;;0.70;;
74124;SDS011;62475;52.192;5.396;2023-06-14T17:40:17;3.35;;;1.00;;
74124;SDS011;62475;52.192;5.396;2023-06-14T17:43:43;1.90;;;0.90;;
74124;SDS011;62475;52.192;5.396;2023-06-14T17:47:06;2.30;;;1.00;;
74124;SDS011;62475;52.192;5.396;2023-06-14T17:50:30;4.13;;;1.05;;
74124;SDS011;62475;52.192;5.396;2023-06-14T17:53:54;1.88;;;0.90;;
74124;SDS011;62475;52.192;5.396;2023-06-14T17:57:18;1.80;;;0.85;;
74124;SDS011;62475;52.192;5.396;2023-06-14T18:00:42;2.63;;;0.93;;
74124;SDS011;62475;52.192;5.396;2023-06-14T18:04:06;2.60;;;1.00;;
74124;SDS011;62475;52.192;5.396;2023-06-14T18:07:30;1.63;;;0.95;;
74124;SDS011;62475;52.192;5.396;2023-06-14T18:10:54;3.78;;;1.10;;
74124;SDS011;62475;52.192;5.396;2023-06-14T18:14:18;1.73;;;0.98;;
74124;SDS011;62475;52.192;5.396;2023-06-14T18:17:42;1.58;;;0.82;;
74124;SDS011;62475;52.192;5.396;2023-06-14T18:21:06;1.60;;;0.80;;
74124;SDS011;62475;52.192;5.396;2023-06-14T18:24:31;2.55;;;0.90;;
74124;SDS011;62475;52.192;5.396;2023-06-14T18:27:55;2.10;;;1.00;;
74124;SDS011;62475;52.192;5.396;2023-06-14T18:31:21;1.23;;;0.90;;
74124;SDS011;62475;52.192;5.396;2023-06-14T18:34:45;1.52;;;0.93;;
74124;SDS011;62475;52.192;5.396;2023-06-14T18:38:09;5.68;;;1.45;;
74124;SDS011;62475;52.192;5.396;2023-06-14T18:41:34;2.63;;;0.98;;
74124;SDS011;62475;52.192;5.396;2023-06-14T18:44:57;2.55;;;1.02;;
74124;SDS011;62475;52.192;5.396;2023-06-14T18:48:23;1.77;;;0.98;;
74124;SDS011;62475;52.192;5.396;2023-06-14T18:51:47;1.52;;;1.30;;
74124;SDS011;62475;52.192;5.396;2023-06-14T18:55:11;1.75;;;0.90;;
74124;SDS011;62475;52.192;5.396;2023-06-14T18:58:35;2.30;;;0.88;;
74124;SDS011;62475;52.192;5.396;2023-06-14T19:01:59;3.40;;;1.17;;
74124;SDS011;62475;52.192;5.396;2023-06-14T19:05:23;1.58;;;1.00;;
74124;SDS011;62475;52.192;5.396;2023-06-14T19:08:49;1.52;;;0.93;;
74124;SDS011;62475;52.192;5.396;2023-06-14T19:12:13;2.10;;;1.23;;
74124;SDS011;62475;52.192;5.396;2023-06-14T19:15:37;2.70;;;0.90;;
74124;SDS011;62475;52.192;5.396;2023-06-14T19:19:02;2.28;;;1.00;;
74124;SDS011;62475;52.192;5.396;2023-06-14T19:22:26;2.22;;;0.70;;
74124;SDS011;62475;52.192;5.396;2023-06-14T19:25:51;2.65;;;1.30;;
74124;SDS011;62475;52.192;5.396;2023-06-14T19:29:15;3.35;;;1.20;;
74124;SDS011;62475;52.192;5.396;2023-06-14T19:32:41;0.95;;;0.82;;
74124;SDS011;62475;52.192;5.396;2023-06-14T19:36:05;2.50;;;1.13;;
74124;SDS011;62475;52.192;5.396;2023-06-14T19:39:30;2.65;;;0.95;;
74124;SDS011;62475;52.192;5.396;2023-06-14T19:42:54;1.98;;;1.30;;
74124;SDS011;62475;52.192;5.396;2023-06-14T19:46:17;3.55;;;1.30;;
74124;SDS011;62475;52.192;5.396;2023-06-14T19:49:41;4.07;;;1.25;;
74124;SDS011;62475;52.192;5.396;2023-06-14T19:53:06;1.33;;;0.82;;
74124;SDS011;62475;52.192;5.396;2023-06-14T19:56:30;3.38;;;1.30;;
74124;SDS011;62475;52.192;5.396;2023-06-14T19:59:54;2.42;;;1.40;;
74124;SDS011;62475;52.192;5.396;2023-06-14T20:03:18;3.72;;;1.20;;
74124;SDS011;62475;52.192;5.396;2023-06-14T20:06:42;2.53;;;1.20;;
74124;SDS011;62475;52.192;5.396;2023-06-14T20:10:06;1.95;;;1.10;;
74124;SDS011;62475;52.192;5.396;2023-06-14T20:13:31;3.00;;;1.33;;
74124;SDS011;62475;52.192;5.396;2023-06-14T20:16:55;2.08;;;1.30;;
74124;SDS011;62475;52.192;5.396;2023-06-14T20:20:21;2.10;;;1.30;;
74124;SDS011;62475;52.192;5.396;2023-06-14T20:23:45;4.75;;;1.38;;
74124;SDS011;62475;52.192;5.396;2023-06-14T20:27:11;1.40;;;1.08;;
74124;SDS011;62475;52.192;5.396;2023-06-14T20:30:35;6.10;;;1.60;;
74124;SDS011;62475;52.192;5.396;2023-06-14T20:33:59;1.88;;;1.30;;
74124;SDS011;62475;52.192;5.396;2023-06-14T20:37:22;1.73;;;1.30;;
74124;SDS011;62475;52.192;5.396;2023-06-14T20:40:46;2.97;;;1.40;;
74124;SDS011;62475;52.192;5.396;2023-06-14T20:44:10;2.53;;;1.23;;
74124;SDS011;62475;52.192;5.396;2023-06-14T20:47:37;2.75;;;1.08;;
74124;SDS011;62475;52.192;5.396;2023-06-14T20:51:01;2.58;;;1.17;;
74124;SDS011;62475;52.192;5.396;2023-06-14T20:54:25;2.95;;;1.38;;
74124;SDS011;62475;52.192;5.396;2023-06-14T20:57:50;1.65;;;0.95;;
74124;SDS011;62475;52.192;5.396;2023-06-14T21:01:14;3.90;;;1.50;;
74124;SDS011;62475;52.192;5.396;2023-06-14T21:04:40;3.10;;;1.67;;
74124;SDS011;62475;52.192;5.396;2023-06-14T21:08:04;3.13;;;1.15;;
74124;SDS011;62475;52.192;5.396;2023-06-14T21:11:28;2.22;;;1.30;;
74124;SDS011;62475;52.192;5.396;2023-06-14T21:14:52;3.08;;;1.20;;
74124;SDS011;62475;52.192;5.396;2023-06-14T21:18:17;5.68;;;1.58;;
74124;SDS011;62475;52.192;5.396;2023-06-14T21:21:41;1.80;;;1.23;;
74124;SDS011;62475;52.192;5.396;2023-06-14T21:25:08;3.15;;;1.42;;
74124;SDS011;62475;52.192;5.396;2023-06-14T21:28:32;4.45;;;1.48;;
74124;SDS011;62475;52.192;5.396;2023-06-14T21:31:56;2.20;;;1.40;;
74124;SDS011;62475;52.192;5.396;2023-06-14T21:35:19;2.20;;;1.50;;
74124;SDS011;62475;52.192;5.396;2023-06-14T21:38:43;3.38;;;1.60;;
74124;SDS011;62475;52.192;5.396;2023-06-14T21:42:07;4.05;;;1.60;;
74124;SDS011;62475;52.192;5.396;2023-06-14T21:45:31;2.97;;;1.60;;